sensor_id;sensor_type;location;lat;lon;timestamp;pressure;altitude;pressure_sealevel;temperature;humidity
72157;BME280;60035;52.122;5.406;2022-10-31T00:01:30;102272.97;;;11.28;97.69
72157;BME280;60035;52.122;5.406;2022-10-31T00:03:57;102278.16;;;11.22;97.55
72157;BME280;60035;52.122;5.406;2022-10-31T00:06:24;102278.22;;;11.16;97.77
72157;BME280;60035;52.122;5.406;2022-10-31T00:08:59;102277.41;;;11.09;97.80
72157;BME280;60035;52.122;5.406;2022-10-31T00:11:26;102279.13;;;11.07;98.05
72157;BME280;60035;52.122;5.406;2022-10-31T00:13:52;102274.03;;;11.04;98.27
72157;BME280;60035;52.122;5.406;2022-10-31T00:16:21;102279.16;;;11.04;98.35
72157;BME280;60035;52.122;5.406;2022-10-31T00:18:56;102278.34;;;11.02;98.45
72157;BME280;60035;52.122;5.406;2022-10-31T00:21:23;102274.06;;;11.03;98.53
72157;BME280;60035;52.122;5.406;2022-10-31T00:23:50;102284.28;;;11.04;98.50
72157;BME280;60035;52.122;5.406;2022-10-31T00:26:18;102283.44;;;11.05;98.22
72157;BME280;60035;52.122;5.406;2022-10-31T00:28:45;102280.84;;;11.08;98.21
72157;BME280;60035;52.122;5.406;2022-10-31T00:31:12;102289.38;;;11.10;98.28
72157;BME280;60035;52.122;5.406;2022-10-31T00:33:40;102286.81;;;11.10;98.01
72157;BME280;60035;52.122;5.406;2022-10-31T00:36:10;102292.84;;;11.05;97.87
72157;BME280;60035;52.122;5.406;2022-10-31T00:38:36;102291.16;;;11.02;97.90
72157;BME280;60035;52.122;5.406;2022-10-31T00:41:03;102290.28;;;11.05;97.79
72157;BME280;60035;52.122;5.406;2022-10-31T00:43:30;102293.72;;;11.00;97.78
72157;BME280;60035;52.122;5.406;2022-10-31T00:45:56;102290.34;;;10.97;97.85
72157;BME280;60035;52.122;5.406;2022-10-31T00:48:22;102296.34;;;10.96;97.90
72157;BME280;60035;52.122;5.406;2022-10-31T00:50:49;102289.50;;;10.93;98.10
72157;BME280;60035;52.122;5.406;2022-10-31T00:53:15;102291.22;;;10.94;98.10
72157;BME280;60035;52.122;5.406;2022-10-31T00:55:42;102289.47;;;10.96;98.33
72157;BME280;60035;52.122;5.406;2022-10-31T00:58:09;102292.91;;;10.97;98.49
72157;BME280;60035;52.122;5.406;2022-10-31T01:00:36;102292.03;;;10.99;98.50
72157;BME280;60035;52.122;5.406;2022-10-31T01:03:02;102291.16;;;11.02;98.64
72157;BME280;60035;52.122;5.406;2022-10-31T01:05:29;102292.84;;;11.05;98.54
72157;BME280;60035;52.122;5.406;2022-10-31T01:07:55;102292.84;;;11.05;98.42
72157;BME280;60035;52.122;5.406;2022-10-31T01:10:22;102289.44;;;11.04;98.34
72157;BME280;60035;52.122;5.406;2022-10-31T01:12:48;102284.28;;;11.04;98.26
72157;BME280;60035;52.122;5.406;2022-10-31T01:15:18;102292.84;;;11.03;97.96
72157;BME280;60035;52.122;5.406;2022-10-31T01:17:45;102286.03;;;10.99;97.80
72157;BME280;60035;52.122;5.406;2022-10-31T01:20:13;102287.78;;;10.97;97.85
72157;BME280;60035;52.122;5.406;2022-10-31T01:22:40;102282.66;;;10.94;97.46
72157;BME280;60035;52.122;5.406;2022-10-31T01:25:08;102279.28;;;10.92;97.04
72157;BME280;60035;52.122;5.406;2022-10-31T01:27:35;102277.59;;;10.89;97.00
72157;BME280;60035;52.122;5.406;2022-10-31T01:30:01;102267.34;;;10.89;96.86
72157;BME280;60035;52.122;5.406;2022-10-31T01:32:28;102265.63;;;10.88;96.61
72157;BME280;60035;52.122;5.406;2022-10-31T01:34:57;102261.34;;;10.89;96.54
72157;BME280;60035;52.122;5.406;2022-10-31T01:37:23;102265.66;;;10.87;96.55
72157;BME280;60035;52.122;5.406;2022-10-31T01:39:50;102261.41;;;10.82;96.26
72157;BME280;60035;52.122;5.406;2022-10-31T01:42:20;102269.13;;;10.81;96.19
72157;BME280;60035;52.122;5.406;2022-10-31T01:44:56;102264.03;;;10.73;95.96
72157;BME280;60035;52.122;5.406;2022-10-31T01:47:41;102265.81;;;10.65;95.84
72157;BME280;60035;52.122;5.406;2022-10-31T01:50:13;102256.44;;;10.59;95.93
72157;BME280;60035;52.122;5.406;2022-10-31T01:52:45;102263.31;;;10.56;96.05
72157;BME280;60035;52.122;5.406;2022-10-31T01:55:24;102256.47;;;10.52;96.00
72157;BME280;60035;52.122;5.406;2022-10-31T01:57:59;102261.66;;;10.47;95.71
72157;BME280;60035;52.122;5.406;2022-10-31T02:00:28;102255.69;;;10.43;95.63
72157;BME280;60035;52.122;5.406;2022-10-31T02:02:55;102261.69;;;10.39;95.50
72157;BME280;60035;52.122;5.406;2022-10-31T02:05:24;102251.47;;;10.31;95.43
72157;BME280;60035;52.122;5.406;2022-10-31T02:07:58;102260.00;;;10.29;95.66
72157;BME280;60035;52.122;5.406;2022-10-31T02:10:26;102262.63;;;10.23;95.83
72157;BME280;60035;52.122;5.406;2022-10-31T02:12:55;102258.38;;;10.15;95.97
72157;BME280;60035;52.122;5.406;2022-10-31T02:15:23;102257.53;;;10.16;95.83
72157;BME280;60035;52.122;5.406;2022-10-31T02:17:51;102255.81;;;10.14;95.30
72157;BME280;60035;52.122;5.406;2022-10-31T02:20:22;102258.38;;;10.09;95.05
72157;BME280;60035;52.122;5.406;2022-10-31T02:23:04;102265.25;;;10.07;94.67
72157;BME280;60035;52.122;5.406;2022-10-31T02:25:53;102264.41;;;10.00;94.33
72157;BME280;60035;52.122;5.406;2022-10-31T02:31:37;102264.47;;;9.90;94.93
72157;BME280;60035;52.122;5.406;2022-10-31T02:34:23;102261.06;;;9.86;94.60
72157;BME280;60035;52.122;5.406;2022-10-31T02:36:57;102262.78;;;9.76;94.40
72157;BME280;60035;52.122;5.406;2022-10-31T02:39:31;102260.25;;;9.72;94.78
72157;BME280;60035;52.122;5.406;2022-10-31T02:47:12;102267.09;;;9.59;94.17
72157;BME280;60035;52.122;5.406;2022-10-31T02:50:00;102277.34;;;9.56;94.76
72157;BME280;60035;52.122;5.406;2022-10-31T02:52:29;102262.00;;;9.51;94.65
72157;BME280;60035;52.122;5.406;2022-10-31T02:54:56;102273.09;;;9.50;94.72
72157;BME280;60035;52.122;5.406;2022-10-31T02:57:26;102275.63;;;9.48;94.66
72157;BME280;60035;52.122;5.406;2022-10-31T03:00:00;102264.59;;;9.45;94.45
72157;BME280;60035;52.122;5.406;2022-10-31T03:07:59;102270.56;;;9.36;94.21
72157;BME280;60035;52.122;5.406;2022-10-31T03:10:41;102266.28;;;9.27;94.43
72157;BME280;60035;52.122;5.406;2022-10-31T03:15:50;102271.41;;;9.24;94.56
72157;BME280;60035;52.122;5.406;2022-10-31T03:18:28;102268.84;;;9.16;94.56
72157;BME280;60035;52.122;5.406;2022-10-31T03:21:09;102273.97;;;9.09;94.71
72157;BME280;60035;52.122;5.406;2022-10-31T03:23:39;102274.81;;;9.03;94.94
72157;BME280;60035;52.122;5.406;2022-10-31T03:26:08;102278.22;;;9.00;94.98
72157;BME280;60035;52.122;5.406;2022-10-31T03:28:46;102276.53;;;8.96;94.88
72157;BME280;60035;52.122;5.406;2022-10-31T03:31:17;102275.69;;;8.94;95.15
72157;BME280;60035;52.122;5.406;2022-10-31T03:33:45;102277.38;;;8.95;95.12
72157;BME280;60035;52.122;5.406;2022-10-31T03:36:14;102274.00;;;8.92;94.97
72157;BME280;60035;52.122;5.406;2022-10-31T03:38:42;102278.22;;;8.93;94.79
72157;BME280;60035;52.122;5.406;2022-10-31T03:41:17;102273.97;;;8.84;94.79
72157;BME280;60035;52.122;5.406;2022-10-31T03:43:51;102279.09;;;8.84;94.87
72157;BME280;60035;52.122;5.406;2022-10-31T03:46:19;102277.38;;;8.83;94.82
72157;BME280;60035;52.122;5.406;2022-10-31T03:48:46;102281.63;;;8.79;94.95
72157;BME280;60035;52.122;5.406;2022-10-31T03:54:11;102279.91;;;8.69;95.01
72157;BME280;60035;52.122;5.406;2022-10-31T03:59:21;102277.34;;;8.69;94.80
72157;BME280;60035;52.122;5.406;2022-10-31T04:01:53;102277.34;;;8.66;95.15
72157;BME280;60035;52.122;5.406;2022-10-31T04:04:23;102272.25;;;8.63;95.09
72157;BME280;60035;52.122;5.406;2022-10-31T04:06:52;102273.09;;;8.63;95.02
72157;BME280;60035;52.122;5.406;2022-10-31T04:09:20;102271.38;;;8.59;94.82
72157;BME280;60035;52.122;5.406;2022-10-31T04:11:50;102272.19;;;8.50;94.82
72157;BME280;60035;52.122;5.406;2022-10-31T04:14:18;102274.69;;;8.41;94.79
72157;BME280;60035;52.122;5.406;2022-10-31T04:16:45;102279.81;;;8.38;94.85
72157;BME280;60035;52.122;5.406;2022-10-31T04:19:12;102278.94;;;8.33;95.35
72157;BME280;60035;52.122;5.406;2022-10-31T04:21:39;102289.16;;;8.31;95.42
72157;BME280;60035;52.122;5.406;2022-10-31T04:24:07;102277.22;;;8.29;95.37
72157;BME280;60035;52.122;5.406;2022-10-31T04:26:33;102281.50;;;8.30;95.21
72157;BME280;60035;52.122;5.406;2022-10-31T04:29:00;102276.38;;;8.28;95.05
72157;BME280;60035;52.122;5.406;2022-10-31T04:31:27;102281.50;;;8.33;95.54
72157;BME280;60035;52.122;5.406;2022-10-31T04:33:53;102273.00;;;8.34;95.32
72157;BME280;60035;52.122;5.406;2022-10-31T04:36:20;102274.72;;;8.33;95.13
72157;BME280;60035;52.122;5.406;2022-10-31T04:38:46;102273.00;;;8.32;95.20
72157;BME280;60035;52.122;5.406;2022-10-31T04:41:12;102279.78;;;8.32;95.21
72157;BME280;60035;52.122;5.406;2022-10-31T04:43:39;102267.03;;;8.27;95.19
72157;BME280;60035;52.122;5.406;2022-10-31T04:46:05;102264.44;;;8.23;95.15
72157;BME280;60035;52.122;5.406;2022-10-31T04:48:32;102261.03;;;8.25;95.14
72157;BME280;60035;52.122;5.406;2022-10-31T04:51:00;102266.16;;;8.24;94.93
72157;BME280;60035;52.122;5.406;2022-10-31T04:53:27;102268.66;;;8.17;94.72
72157;BME280;60035;52.122;5.406;2022-10-31T04:55:53;102267.00;;;8.20;94.81
72157;BME280;60035;52.122;5.406;2022-10-31T04:58:20;102264.44;;;8.16;94.87
72157;BME280;60035;52.122;5.406;2022-10-31T05:00:46;102259.34;;;8.15;94.82
72157;BME280;60035;52.122;5.406;2022-10-31T05:03:12;102268.66;;;8.16;95.01
72157;BME280;60035;52.122;5.406;2022-10-31T05:05:39;102268.69;;;8.19;94.46
72157;BME280;60035;52.122;5.406;2022-10-31T05:08:05;102261.00;;;8.14;94.46
72157;BME280;60035;52.122;5.406;2022-10-31T05:10:34;102252.50;;;8.09;94.47
72157;BME280;60035;52.122;5.406;2022-10-31T05:13:02;102261.84;;;8.09;94.57
72157;BME280;60035;52.122;5.406;2022-10-31T05:15:30;102259.31;;;8.06;94.45
72157;BME280;60035;52.122;5.406;2022-10-31T05:17:57;102260.94;;;7.97;94.67
72157;BME280;60035;52.122;5.406;2022-10-31T05:20:27;102263.47;;;7.90;94.77
72157;BME280;60035;52.122;5.406;2022-10-31T05:22:57;102261.75;;;7.86;95.14
72157;BME280;60035;52.122;5.406;2022-10-31T05:25:26;102256.63;;;7.86;95.15
72157;BME280;60035;52.122;5.406;2022-10-31T05:27:54;102259.19;;;7.86;95.07
72157;BME280;60035;52.122;5.406;2022-10-31T05:30:25;102259.19;;;7.87;95.05
72157;BME280;60035;52.122;5.406;2022-10-31T05:32:52;102249.81;;;7.81;94.99
72157;BME280;60035;52.122;5.406;2022-10-31T05:35:24;102253.22;;;7.80;95.33
72157;BME280;60035;52.122;5.406;2022-10-31T05:37:51;102246.44;;;7.81;95.38
72157;BME280;60035;52.122;5.406;2022-10-31T05:40:19;102255.75;;;7.77;95.25
72157;BME280;60035;52.122;5.406;2022-10-31T05:42:46;102250.63;;;7.70;95.19
72157;BME280;60035;52.122;5.406;2022-10-31T05:45:14;102251.44;;;7.68;95.60
72157;BME280;60035;52.122;5.406;2022-10-31T05:47:42;102254.00;;;7.67;95.59
72157;BME280;60035;52.122;5.406;2022-10-31T05:50:09;102252.31;;;7.66;95.93
72157;BME280;60035;52.122;5.406;2022-10-31T05:52:36;102253.16;;;7.65;96.11
72157;BME280;60035;52.122;5.406;2022-10-31T05:55:03;102247.13;;;7.52;95.79
72157;BME280;60035;52.122;5.406;2022-10-31T05:57:31;102251.34;;;7.47;95.91
72157;BME280;60035;52.122;5.406;2022-10-31T05:59:58;102237.75;;;7.48;96.38
72157;BME280;60035;52.122;5.406;2022-10-31T06:02:25;102241.97;;;7.46;96.44
72157;BME280;60035;52.122;5.406;2022-10-31T06:04:52;102237.75;;;7.45;96.70
72157;BME280;60035;52.122;5.406;2022-10-31T06:07:19;102240.31;;;7.46;96.50
72157;BME280;60035;52.122;5.406;2022-10-31T06:09:45;102240.31;;;7.49;96.85
72157;BME280;60035;52.122;5.406;2022-10-31T06:12:12;102233.50;;;7.48;97.13
72157;BME280;60035;52.122;5.406;2022-10-31T06:14:38;102235.22;;;7.46;97.36
72157;BME280;60035;52.122;5.406;2022-10-31T06:17:06;102237.75;;;7.46;97.17
72157;BME280;60035;52.122;5.406;2022-10-31T06:19:32;102238.59;;;7.48;97.66
72157;BME280;60035;52.122;5.406;2022-10-31T06:21:59;102238.66;;;7.53;97.86
72157;BME280;60035;52.122;5.406;2022-10-31T06:24:25;102231.00;;;7.59;97.71
72157;BME280;60035;52.122;5.406;2022-10-31T06:26:52;102236.16;;;7.64;97.84
72157;BME280;60035;52.122;5.406;2022-10-31T06:29:18;102242.91;;;7.62;98.36
72157;BME280;60035;52.122;5.406;2022-10-31T06:31:44;102242.06;;;7.61;98.32
72157;BME280;60035;52.122;5.406;2022-10-31T06:34:11;102243.78;;;7.64;98.70
72157;BME280;60035;52.122;5.406;2022-10-31T06:36:38;102240.41;;;7.66;98.59
72157;BME280;60035;52.122;5.406;2022-10-31T06:39:05;102247.22;;;7.72;98.70
72157;BME280;60035;52.122;5.406;2022-10-31T06:41:34;102240.44;;;7.73;98.90
72157;BME280;60035;52.122;5.406;2022-10-31T06:44:03;102248.09;;;7.79;98.63
72157;BME280;60035;52.122;5.406;2022-10-31T06:46:34;102249.81;;;7.81;98.94
72157;BME280;60035;52.122;5.406;2022-10-31T06:49:01;102250.69;;;7.82;99.07
72157;BME280;60035;52.122;5.406;2022-10-31T06:51:27;102254.09;;;7.86;98.96
72157;BME280;60035;52.122;5.406;2022-10-31T06:53:53;102248.16;;;7.87;99.07
72157;BME280;60035;52.122;5.406;2022-10-31T06:56:20;102258.34;;;7.90;99.14
72157;BME280;60035;52.122;5.406;2022-10-31T06:58:46;102254.97;;;7.91;99.05
72157;BME280;60035;52.122;5.406;2022-10-31T07:01:13;102255.00;;;7.97;99.25
72157;BME280;60035;52.122;5.406;2022-10-31T07:03:39;102254.16;;;8.01;99.05
72157;BME280;60035;52.122;5.406;2022-10-31T07:06:06;102255.88;;;8.04;99.34
72157;BME280;60035;52.122;5.406;2022-10-31T07:08:32;102256.75;;;8.09;99.17
72157;BME280;60035;52.122;5.406;2022-10-31T07:10:59;102259.31;;;8.10;99.05
72157;BME280;60035;52.122;5.406;2022-10-31T07:13:25;102258.47;;;8.11;98.74
72157;BME280;60035;52.122;5.406;2022-10-31T07:15:54;102254.22;;;8.15;98.84
72157;BME280;60035;52.122;5.406;2022-10-31T07:18:21;102252.53;;;8.15;98.74
72157;BME280;60035;52.122;5.406;2022-10-31T07:20:47;102248.28;;;8.21;98.98
72157;BME280;60035;52.122;5.406;2022-10-31T07:23:14;102252.56;;;8.25;98.93
72157;BME280;60035;52.122;5.406;2022-10-31T07:25:41;102247.44;;;8.28;98.61
72157;BME280;60035;52.122;5.406;2022-10-31T07:28:08;102250.88;;;8.30;98.57
72157;BME280;60035;52.122;5.406;2022-10-31T07:30:35;102250.03;;;8.34;98.45
72157;BME280;60035;52.122;5.406;2022-10-31T07:33:01;102257.69;;;8.39;98.48
72157;BME280;60035;52.122;5.406;2022-10-31T07:35:29;102260.25;;;8.42;98.58
72157;BME280;60035;52.122;5.406;2022-10-31T07:37:56;102261.09;;;8.42;98.54
72157;BME280;60035;52.122;5.406;2022-10-31T07:40:24;102260.25;;;8.45;98.58
72157;BME280;60035;52.122;5.406;2022-10-31T07:42:52;102264.53;;;8.49;98.39
72157;BME280;60035;52.122;5.406;2022-10-31T07:45:20;102262.88;;;8.54;98.42
72157;BME280;60035;52.122;5.406;2022-10-31T07:47:51;102263.72;;;8.62;98.27
72157;BME280;60035;52.122;5.406;2022-10-31T07:50:26;102267.13;;;8.67;98.16
72157;BME280;60035;52.122;5.406;2022-10-31T07:53:07;102272.25;;;8.74;98.18
72157;BME280;60035;52.122;5.406;2022-10-31T07:55:33;102271.41;;;8.79;98.22
72157;BME280;60035;52.122;5.406;2022-10-31T07:58:08;102264.59;;;8.84;98.42
72157;BME280;60035;52.122;5.406;2022-10-31T08:00:38;102273.97;;;8.95;98.34
72157;BME280;60035;52.122;5.406;2022-10-31T08:03:07;102271.41;;;8.98;98.26
72157;BME280;60035;52.122;5.406;2022-10-31T08:05:35;102273.97;;;8.99;98.19
72157;BME280;60035;52.122;5.406;2022-10-31T08:08:03;102270.56;;;9.08;98.33
72157;BME280;60035;52.122;5.406;2022-10-31T08:10:30;102277.38;;;9.22;98.46
72157;BME280;60035;52.122;5.406;2022-10-31T08:12:59;102287.59;;;9.28;98.54
72157;BME280;60035;52.122;5.406;2022-10-31T08:15:26;102278.22;;;9.38;98.61
72157;BME280;60035;52.122;5.406;2022-10-31T08:17:53;102273.09;;;9.45;98.66
72157;BME280;60035;52.122;5.406;2022-10-31T08:20:21;102279.91;;;9.53;98.69
72157;BME280;60035;52.122;5.406;2022-10-31T08:25:25;102276.44;;;9.75;98.93
72157;BME280;60035;52.122;5.406;2022-10-31T08:27:56;102274.69;;;9.90;98.69
72157;BME280;60035;52.122;5.406;2022-10-31T08:30:28;102273.78;;;10.00;98.84
72157;BME280;60035;52.122;5.406;2022-10-31T08:33:10;102269.44;;;10.16;98.79
72157;BME280;60035;52.122;5.406;2022-10-31T08:35:42;102271.97;;;10.27;98.68
72157;BME280;60035;52.122;5.406;2022-10-31T08:38:10;102271.94;;;10.39;98.98
72157;BME280;60035;52.122;5.406;2022-10-31T08:40:38;102265.91;;;10.48;99.09
72157;BME280;60035;52.122;5.406;2022-10-31T08:43:23;102269.25;;;10.58;99.02
72157;BME280;60035;52.122;5.406;2022-10-31T08:45:49;102265.81;;;10.65;99.04
72157;BME280;60035;52.122;5.406;2022-10-31T08:48:17;102270.03;;;10.72;99.21
72157;BME280;60035;52.122;5.406;2022-10-31T08:50:48;102266.56;;;10.76;98.96
72157;BME280;60035;52.122;5.406;2022-10-31T08:53:17;102258.81;;;10.86;99.10
72157;BME280;60035;52.122;5.406;2022-10-31T08:55:45;102253.63;;;10.95;99.27
72157;BME280;60035;52.122;5.406;2022-10-31T08:58:14;102246.72;;;11.05;99.16
72157;BME280;60035;52.122;5.406;2022-10-31T09:00:42;102244.13;;;11.08;99.04
72157;BME280;60035;52.122;5.406;2022-10-31T09:03:12;102243.19;;;11.13;98.92
72157;BME280;60035;52.122;5.406;2022-10-31T09:05:40;102244.84;;;11.21;98.83
72157;BME280;60035;52.122;5.406;2022-10-31T09:08:07;102241.31;;;11.31;98.60
72157;BME280;60035;52.122;5.406;2022-10-31T09:10:41;102240.34;;;11.43;98.79
72157;BME280;60035;52.122;5.406;2022-10-31T09:13:11;102238.47;;;11.59;98.80
72157;BME280;60035;52.122;5.406;2022-10-31T09:15:40;102228.88;;;11.76;98.71
72157;BME280;60035;52.122;5.406;2022-10-31T09:18:07;102220.06;;;11.96;98.78
72157;BME280;60035;52.122;5.406;2022-10-31T09:20:35;102219.06;;;12.09;98.78
72157;BME280;60035;52.122;5.406;2022-10-31T09:23:09;102219.88;;;12.14;98.36
72157;BME280;60035;52.122;5.406;2022-10-31T09:25:36;102214.66;;;12.19;98.40
72157;BME280;60035;52.122;5.406;2022-10-31T09:28:05;102205.16;;;12.24;98.19
72157;BME280;60035;52.122;5.406;2022-10-31T09:30:33;102190.50;;;12.31;98.27
72157;BME280;60035;52.122;5.406;2022-10-31T09:33:05;102192.97;;;12.39;97.98
72157;BME280;60035;52.122;5.406;2022-10-31T09:35:38;102193.66;;;12.48;97.94
72157;BME280;60035;52.122;5.406;2022-10-31T09:38:16;102188.34;;;12.59;97.94
72157;BME280;60035;52.122;5.406;2022-10-31T09:41:07;102183.88;;;12.71;98.09
72157;BME280;60035;52.122;5.406;2022-10-31T09:53:02;102190.44;;;13.36;98.17
72157;BME280;60035;52.122;5.406;2022-10-31T09:55:38;102194.53;;;13.47;98.01
72157;BME280;60035;52.122;5.406;2022-10-31T09:58:11;102189.97;;;13.60;97.99
72157;BME280;60035;52.122;5.406;2022-10-31T10:00:39;102182.00;;;13.73;97.87
72157;BME280;60035;52.122;5.406;2022-10-31T10:05:52;102186.38;;;14.08;97.38
72157;BME280;60035;52.122;5.406;2022-10-31T10:08:25;102180.97;;;14.19;97.11
72157;BME280;60035;52.122;5.406;2022-10-31T10:14:18;102169.34;;;14.39;95.99
72157;BME280;60035;52.122;5.406;2022-10-31T10:17:08;102166.28;;;14.59;95.66
72157;BME280;60035;52.122;5.406;2022-10-31T10:25:14;102160.81;;;14.73;94.18
72157;BME280;60035;52.122;5.406;2022-10-31T10:30:48;102152.91;;;14.79;93.05
72157;BME280;60035;52.122;5.406;2022-10-31T10:33:31;102144.19;;;14.85;92.71
72157;BME280;60035;52.122;5.406;2022-10-31T10:36:01;102142.38;;;14.87;92.37
72157;BME280;60035;52.122;5.406;2022-10-31T10:38:50;102138.94;;;14.88;91.98
72157;BME280;60035;52.122;5.406;2022-10-31T10:41:22;102145.75;;;14.90;91.60
72157;BME280;60035;52.122;5.406;2022-10-31T10:43:50;102134.50;;;14.93;91.20
72157;BME280;60035;52.122;5.406;2022-10-31T10:46:21;102133.56;;;14.95;91.17
72157;BME280;60035;52.122;5.406;2022-10-31T10:49:17;102119.59;;;15.03;90.86
72157;BME280;60035;52.122;5.406;2022-10-31T10:57:58;102093.00;;;15.32;90.59
72157;BME280;60035;52.122;5.406;2022-10-31T11:03:07;102091.53;;;15.52;89.13
72157;BME280;60035;52.122;5.406;2022-10-31T11:05:47;102078.44;;;15.58;89.20
72157;BME280;60035;52.122;5.406;2022-10-31T11:08:33;102069.59;;;15.66;89.21
72157;BME280;60035;52.122;5.406;2022-10-31T11:11:23;102052.41;;;15.65;88.60
72157;BME280;60035;52.122;5.406;2022-10-31T11:13:57;102037.72;;;15.66;87.85
72157;BME280;60035;52.122;5.406;2022-10-31T11:16:35;102036.75;;;15.70;87.59
72157;BME280;60035;52.122;5.406;2022-10-31T11:19:21;102040.97;;;15.73;87.39
72157;BME280;60035;52.122;5.406;2022-10-31T11:21:48;102051.16;;;15.77;86.63
72157;BME280;60035;52.122;5.406;2022-10-31T11:24:24;102050.91;;;15.87;86.63
72157;BME280;60035;52.122;5.406;2022-10-31T11:27:05;102052.44;;;15.92;86.32
72157;BME280;60035;52.122;5.406;2022-10-31T11:29:37;102058.47;;;15.91;86.30
72157;BME280;60035;52.122;5.406;2022-10-31T11:32:04;102060.34;;;15.88;86.42
72157;BME280;60035;52.122;5.406;2022-10-31T11:34:35;102037.94;;;15.88;86.23
72157;BME280;60035;52.122;5.406;2022-10-31T11:37:10;102043.09;;;15.88;86.45
72157;BME280;60035;52.122;5.406;2022-10-31T11:39:41;102032.69;;;15.90;86.27
72157;BME280;60035;52.122;5.406;2022-10-31T11:42:13;102017.84;;;15.96;86.18
72157;BME280;60035;52.122;5.406;2022-10-31T11:44:42;102022.81;;;16.03;86.17
72157;BME280;60035;52.122;5.406;2022-10-31T11:47:13;102025.47;;;16.01;85.63
72157;BME280;60035;52.122;5.406;2022-10-31T11:49:43;102022.00;;;16.01;85.74
72157;BME280;60035;52.122;5.406;2022-10-31T11:52:16;102022.88;;;16.01;85.83
72157;BME280;60035;52.122;5.406;2022-10-31T11:54:50;101999.50;;;16.04;85.38
72157;BME280;60035;52.122;5.406;2022-10-31T12:00:00;101973.41;;;16.12;85.50
72157;BME280;60035;52.122;5.406;2022-10-31T12:02:27;101971.50;;;16.17;85.30
72157;BME280;60035;52.122;5.406;2022-10-31T12:05:03;101962.88;;;16.18;85.06
72157;BME280;60035;52.122;5.406;2022-10-31T12:07:32;101956.97;;;16.14;85.18
72157;BME280;60035;52.122;5.406;2022-10-31T12:09:59;101955.69;;;16.01;84.99
72157;BME280;60035;52.122;5.406;2022-10-31T12:15:50;101961.13;;;15.93;86.21
72157;BME280;60035;52.122;5.406;2022-10-31T12:21:19;101929.31;;;15.91;86.93
72157;BME280;60035;52.122;5.406;2022-10-31T12:26:48;101928.97;;;16.02;87.13
72157;BME280;60035;52.122;5.406;2022-10-31T12:32:32;101903.47;;;16.16;86.44
72157;BME280;60035;52.122;5.406;2022-10-31T12:43:21;101899.16;;;16.41;85.46
72157;BME280;60035;52.122;5.406;2022-10-31T12:45:58;101880.19;;;16.40;85.31
72157;BME280;60035;52.122;5.406;2022-10-31T12:54:00;101857.38;;;16.52;84.59
72157;BME280;60035;52.122;5.406;2022-10-31T12:59:40;101857.16;;;16.58;84.21
72157;BME280;60035;52.122;5.406;2022-10-31T13:02:16;101847.59;;;16.60;84.14
72157;BME280;60035;52.122;5.406;2022-10-31T13:07:19;101844.94;;;16.61;84.19
72157;BME280;60035;52.122;5.406;2022-10-31T13:10:14;101835.31;;;16.65;83.96
72157;BME280;60035;52.122;5.406;2022-10-31T13:12:42;101839.72;;;16.63;83.90
72157;BME280;60035;52.122;5.406;2022-10-31T13:15:18;101834.72;;;16.58;84.00
72157;BME280;60035;52.122;5.406;2022-10-31T13:17:48;101820.91;;;16.59;84.12
72157;BME280;60035;52.122;5.406;2022-10-31T13:20:24;101801.94;;;16.59;84.07
72157;BME280;60035;52.122;5.406;2022-10-31T13:22:55;101797.69;;;16.58;84.05
72157;BME280;60035;52.122;5.406;2022-10-31T13:25:27;101792.38;;;16.61;84.36
72157;BME280;60035;52.122;5.406;2022-10-31T13:28:03;101785.47;;;16.61;84.29
72157;BME280;60035;52.122;5.406;2022-10-31T13:30:37;101786.31;;;16.62;84.29
72157;BME280;60035;52.122;5.406;2022-10-31T13:33:15;101788.63;;;16.68;84.35
72157;BME280;60035;52.122;5.406;2022-10-31T13:35:45;101777.22;;;16.74;84.20
72157;BME280;60035;52.122;5.406;2022-10-31T13:38:33;101772.66;;;16.80;84.45
72157;BME280;60035;52.122;5.406;2022-10-31T13:41:04;101769.75;;;16.88;84.51
72157;BME280;60035;52.122;5.406;2022-10-31T13:43:41;101755.75;;;16.94;84.44
72157;BME280;60035;52.122;5.406;2022-10-31T13:46:25;101751.06;;;17.02;84.02
72157;BME280;60035;52.122;5.406;2022-10-31T13:48:53;101751.78;;;17.06;83.86
72157;BME280;60035;52.122;5.406;2022-10-31T13:51:28;101737.88;;;17.08;83.71
72157;BME280;60035;52.122;5.406;2022-10-31T13:56:33;101730.06;;;17.10;83.20
72157;BME280;60035;52.122;5.406;2022-10-31T14:01:35;101726.63;;;17.09;83.38
72157;BME280;60035;52.122;5.406;2022-10-31T14:04:14;101729.34;;;17.06;83.24
72157;BME280;60035;52.122;5.406;2022-10-31T14:06:55;101720.88;;;17.03;83.49
72157;BME280;60035;52.122;5.406;2022-10-31T14:09:33;101723.47;;;17.03;83.34
72157;BME280;60035;52.122;5.406;2022-10-31T14:12:14;101718.31;;;17.03;83.64
72157;BME280;60035;52.122;5.406;2022-10-31T14:14:50;101713.31;;;16.98;83.17
72157;BME280;60035;52.122;5.406;2022-10-31T14:17:23;101710.06;;;16.93;83.59
72157;BME280;60035;52.122;5.406;2022-10-31T14:20:00;101710.22;;;16.90;83.45
72157;BME280;60035;52.122;5.406;2022-10-31T14:22:31;101705.25;;;16.83;83.69
72157;BME280;60035;52.122;5.406;2022-10-31T14:25:00;101693.22;;;16.82;83.80
72157;BME280;60035;52.122;5.406;2022-10-31T14:29:54;101681.31;;;16.78;84.11
72157;BME280;60035;52.122;5.406;2022-10-31T14:32:24;101670.25;;;16.75;84.26
72157;BME280;60035;52.122;5.406;2022-10-31T14:34:54;101668.66;;;16.72;84.37
72157;BME280;60035;52.122;5.406;2022-10-31T14:43:19;101664.78;;;16.62;84.56
72157;BME280;60035;52.122;5.406;2022-10-31T14:46:02;101653.72;;;16.58;84.89
72157;BME280;60035;52.122;5.406;2022-10-31T14:51:23;101645.31;;;16.53;85.18
72157;BME280;60035;52.122;5.406;2022-10-31T14:53:53;101645.38;;;16.52;84.99
72157;BME280;60035;52.122;5.406;2022-10-31T14:56:26;101645.56;;;16.47;85.30
72157;BME280;60035;52.122;5.406;2022-10-31T14:58:56;101647.38;;;16.45;85.25
72157;BME280;60035;52.122;5.406;2022-10-31T15:01:32;101648.34;;;16.42;85.46